Flight Track Log - Related Links

Times and Time Zones

All times are in EDT time to prevent confusion due to time zone crossing. See the N509QS flight status page for this flight to view local times or setup timezone preferences in your user account.

Time Position Orientation Groundspeed Altitude Reporting Facility
EDT Latitude Longitude Course Direction KTS MPH feet Rate Location/Type
Sun 08:05:53 AM 41.0167 -73.7167 44° Northeast 200 230 3,000  Level New York TRACON
Sun 08:06:53 AM 41.0500 -73.7667 311° West 209 241 3,000  Level New York TRACON
Sun 08:07:53 AM 41.0833 -73.8500 298° West 254 292 3,000 1,900 Level New York TRACON
Sun 08:08:53 AM 41.1500 -73.8667 349° North 276 318 6,800 3,000 Climbing New York TRACON
Sun 08:09:53 AM 41.2000 -73.7667 56° Northeast 296 341 9,000 1,100 Climbing New York TRACON
Sun 08:10:53 AM 41.2333 -73.6833 62° Northeast 298 343 9,000  Level New York TRACON
Sun 08:11:00 AM 41.4346 -73.3511 44° Northeast  Level FlightAware Approximate
Sun 08:11:53 AM 41.2833 -73.5833 56° Northeast 299 344 9,000  Level New York TRACON
Sun 08:12:53 AM 41.3333 -73.5000 51° Northeast 294 338 9,000  Level New York TRACON
Sun 08:13:59 AM 41.4000 -73.4167 43° Northeast 292 336 9,000  Level New York TRACON
Sun 08:14:29 AM 41.4272 -73.3869 39° Northeast 289 333 9,000  Level Boston Center
Sun 08:15:30 AM 41.4842 -73.3103 45° Northeast 289 333 9,000  Level Boston Center
Sun 08:16:31 AM 41.5411 -73.2361 44° Northeast 291 335 9,000  Level Boston Center
Sun 08:17:31 AM 41.5978 -73.1561 47° Northeast 295 339 9,000  Level Boston Center
Sun 08:18:32 AM 41.6731 -73.1183 21° North 278 320 9,000 -393 Level Boston Center
Sun 08:19:33 AM 41.7481 -73.1386 349° North 281 323 8,200 -1,240 Descending Boston Center
Sun 08:20:33 AM 41.8272 -73.1561 351° North 279 321 6,500 -1,617 Descending Boston Center
Sun 08:21:28 AM 41.8936 -73.1708 351° North 262 302 5,100 -938 Descending Boston Center
Sun 08:22:09 AM 41.9436 -73.1797 352° North 260 299 5,000 -85 Descending Boston Center
Sun 08:22:39 AM 41.9728 -73.1911 344° North 256 295 5,000  Level Boston Center
Sun 08:23:40 AM 42.0456 -73.2033 353° North 261 300 5,000  Level Boston Center
Sun 08:24:40 AM 42.1225 -73.2239 349° North 263 303 5,000  Level Boston Center
Sun 08:25:35 AM 42.1831 -73.2386 350° North 261 300 5,000  Level Boston Center
Sun 08:26:35 AM 42.2436 -73.2028 24° Northeast 222 255 5,000  Level Boston Center
Sun 08:27:36 AM 42.2753 -73.1303 59° Northeast 219 252 5,000  Level Boston Center

Login

Don't have an account? Register now (free) for customized features, flight alerts, and more!